createdAt,value
2022-09-14T00:01:25.749Z,24.40
2022-09-14T00:03:59.975Z,23.40
2022-09-14T00:06:32.647Z,24.60
2022-09-14T00:09:06.821Z,25.40
2022-09-14T00:11:39.680Z,24.50
2022-09-14T00:14:11.610Z,24.00
2022-09-14T00:16:44.535Z,23.80
2022-09-14T00:19:21.740Z,23.10
2022-09-14T00:21:55.752Z,24.80
2022-09-14T00:24:30.090Z,24.10
2022-09-14T00:27:03.301Z,23.60
2022-09-14T00:29:35.114Z,24.30
2022-09-14T00:32:07.251Z,23.80
2022-09-14T00:34:39.138Z,24.70
2022-09-14T00:37:11.969Z,23.60
2022-09-14T00:39:43.971Z,23.20
2022-09-14T00:42:19.576Z,25.20
2022-09-14T00:45:08.405Z,24.30
2022-09-14T00:47:40.250Z,24.00
2022-09-14T00:50:12.630Z,21.70
2022-09-14T00:55:19.796Z,22.50
2022-09-14T00:57:54.536Z,22.50
2022-09-14T01:00:28.961Z,22.50
2022-09-14T01:03:02.083Z,24.40
2022-09-14T01:05:47.140Z,23.30
2022-09-14T01:08:38.621Z,22.40
2022-09-14T01:11:32.569Z,23.50
2022-09-14T01:14:11.421Z,25.00
2022-09-14T01:16:50.866Z,24.60
2022-09-14T01:19:33.136Z,24.90
2022-09-14T01:22:15.157Z,24.60
2022-09-14T01:24:51.720Z,24.40
2022-09-14T01:27:33.317Z,24.20
2022-09-14T01:30:11.945Z,24.60
2022-09-14T01:32:50.261Z,23.40
2022-09-14T01:35:27.966Z,24.30
2022-09-14T01:38:04.791Z,22.90
2022-09-14T01:40:40.836Z,26.20
2022-09-14T01:43:16.683Z,23.20
2022-09-14T01:45:51.282Z,23.70
2022-09-14T01:48:28.470Z,24.60
2022-09-14T01:51:02.472Z,25.60
2022-09-14T01:53:38.200Z,27.30
2022-09-14T01:56:15.162Z,26.70
2022-09-14T01:58:51.400Z,27.00
2022-09-14T02:01:26.727Z,26.80
2022-09-14T02:04:08.596Z,26.40
2022-09-14T02:06:44.325Z,27.60
2022-09-14T02:09:21.385Z,25.80
2022-09-14T02:11:54.910Z,25.10
2022-09-14T02:14:28.003Z,25.00
2022-09-14T02:17:00.109Z,25.30
2022-09-14T02:19:38.665Z,26.80
2022-09-14T02:22:10.420Z,24.30
2022-09-14T02:24:42.278Z,24.60
2022-09-14T02:27:13.843Z,24.60
2022-09-14T02:29:45.756Z,23.00
2022-09-14T02:32:27.585Z,22.20
2022-09-14T02:35:06.818Z,22.30
2022-09-14T02:37:45.766Z,20.30
2022-09-14T02:40:24.969Z,19.10
2022-09-14T02:43:07.601Z,20.30
2022-09-14T02:45:45.102Z,18.40
2022-09-14T02:48:27.670Z,18.70
2022-09-14T02:51:05.990Z,18.30
2022-09-14T02:53:41.812Z,18.70
2022-09-14T02:56:14.737Z,18.30
2022-09-14T02:58:47.703Z,18.00
2022-09-14T03:01:21.459Z,17.50
2022-09-14T03:03:53.761Z,17.00
2022-09-14T03:06:25.890Z,15.10
2022-09-14T03:08:58.584Z,15.90
2022-09-14T03:11:30.468Z,17.00
2022-09-14T03:14:02.471Z,17.10
2022-09-14T03:16:34.257Z,16.10
2022-09-14T03:19:06.989Z,16.50
2022-09-14T03:24:10.853Z,15.00
2022-09-14T03:26:43.064Z,10.60
2022-09-14T03:29:14.822Z,14.70
2022-09-14T03:31:46.513Z,14.80
2022-09-14T03:34:18.292Z,15.60
2022-09-14T03:36:50.385Z,13.90
2022-09-14T03:39:22.350Z,12.70
2022-09-14T03:41:53.988Z,12.30
2022-09-14T03:44:26.064Z,13.20
2022-09-14T03:46:58.611Z,12.20
2022-09-14T03:49:30.699Z,12.50
2022-09-14T03:52:03.569Z,13.00
2022-09-14T03:54:35.272Z,12.20
2022-09-14T03:57:08.021Z,11.70
2022-09-14T04:02:15.496Z,10.90
2022-09-14T04:04:48.325Z,12.10
2022-09-14T04:09:50.442Z,11.70
2022-09-14T04:12:22.148Z,10.60
2022-09-14T04:14:53.841Z,10.20
2022-09-14T04:17:25.789Z,11.00
2022-09-14T04:19:57.450Z,10.90
2022-09-14T04:22:29.095Z,10.20
2022-09-14T04:25:00.989Z,10.30
2022-09-14T04:27:33.799Z,9.90
2022-09-14T04:30:06.368Z,9.20
2022-09-14T04:35:09.025Z,10.60
2022-09-14T04:37:40.749Z,9.10
2022-09-14T04:40:14.788Z,8.90
2022-09-14T04:42:46.686Z,9.70
2022-09-14T04:45:18.443Z,8.20
2022-09-14T04:47:50.568Z,8.20
2022-09-14T04:50:22.558Z,8.40
2022-09-14T04:52:57.249Z,7.60
2022-09-14T04:55:28.998Z,8.80
2022-09-14T04:58:00.756Z,8.50
2022-09-14T05:00:34.186Z,8.10
2022-09-14T05:03:06.565Z,8.20
2022-09-14T05:08:14.709Z,7.80
2022-09-14T05:10:46.582Z,7.70
2022-09-14T05:13:18.202Z,8.00
2022-09-14T05:15:50.015Z,7.60
2022-09-14T05:18:23.045Z,7.50
2022-09-14T05:20:54.720Z,6.80
2022-09-14T05:23:26.395Z,6.50
2022-09-14T05:25:58.460Z,6.80
2022-09-14T05:28:30.901Z,7.30
2022-09-14T05:31:05.098Z,6.90
2022-09-14T05:33:38.105Z,7.30
2022-09-14T05:36:11.214Z,6.10
2022-09-14T05:38:43.939Z,6.40
2022-09-14T05:41:17.439Z,6.10
2022-09-14T05:43:49.359Z,6.70
2022-09-14T05:46:22.257Z,5.00
2022-09-14T05:48:54.110Z,6.30
2022-09-14T05:51:28.593Z,6.00
2022-09-14T05:54:01.711Z,5.70
2022-09-14T05:56:33.601Z,4.90
2022-09-14T05:59:05.374Z,5.10
2022-09-14T06:01:37.025Z,6.50
2022-09-14T06:04:11.037Z,6.40
2022-09-14T06:06:52.113Z,6.50
2022-09-14T06:09:33.559Z,5.60
2022-09-14T06:12:05.609Z,5.50
2022-09-14T06:14:37.610Z,5.50
2022-09-14T06:17:09.268Z,4.60
2022-09-14T06:19:40.977Z,6.10
2022-09-14T06:22:12.764Z,5.20
2022-09-14T06:24:44.526Z,5.40
2022-09-14T06:27:16.717Z,5.30
2022-09-14T06:29:52.046Z,4.90
2022-09-14T06:32:24.253Z,5.20
2022-09-14T06:34:55.978Z,6.70
2022-09-14T06:37:27.814Z,6.40
2022-09-14T06:39:59.857Z,4.50
2022-09-14T06:42:33.240Z,4.20
2022-09-14T06:45:05.885Z,5.20
2022-09-14T06:47:37.502Z,4.90
2022-09-14T06:50:10.450Z,5.20
2022-09-14T06:52:42.126Z,6.10
2022-09-14T06:55:17.829Z,4.50
2022-09-14T06:57:51.276Z,4.90
2022-09-14T07:00:23.736Z,4.40
2022-09-14T07:02:56.920Z,4.10
2022-09-14T07:05:29.105Z,4.20
2022-09-14T07:08:00.946Z,5.30
2022-09-14T07:10:32.557Z,3.90
2022-09-14T07:13:04.278Z,3.90
2022-09-14T07:15:36.010Z,3.70
2022-09-14T07:18:07.821Z,3.80
2022-09-14T07:20:39.638Z,3.20
2022-09-14T07:23:13.445Z,3.70
2022-09-14T07:25:45.161Z,4.00
2022-09-14T07:28:17.171Z,3.60
2022-09-14T07:30:49.231Z,3.70
2022-09-14T07:33:20.915Z,3.90
2022-09-14T07:35:53.530Z,3.80
2022-09-14T07:38:41.693Z,3.40
2022-09-14T07:41:16.957Z,4.50
2022-09-14T07:43:51.433Z,6.50
2022-09-14T07:46:24.026Z,3.80
2022-09-14T07:48:59.652Z,3.40
2022-09-14T07:51:32.924Z,3.70
2022-09-14T07:54:06.243Z,3.40
2022-09-14T07:56:38.461Z,3.50
2022-09-14T07:59:34.418Z,3.40
2022-09-14T08:02:03.167Z,3.10
2022-09-14T08:04:35.227Z,3.90
2022-09-14T08:07:08.025Z,4.30
2022-09-14T08:09:40.081Z,3.40
2022-09-14T08:12:11.862Z,2.10
2022-09-14T08:14:43.775Z,3.30
2022-09-14T08:17:16.374Z,3.10
2022-09-14T08:19:48.222Z,3.60
2022-09-14T08:22:19.891Z,3.60
2022-09-14T08:24:51.497Z,2.90
2022-09-14T08:27:23.264Z,3.70
2022-09-14T08:29:54.928Z,2.80
2022-09-14T08:32:26.559Z,4.20
2022-09-14T08:34:58.532Z,4.80
2022-09-14T08:37:30.571Z,2.70
2022-09-14T08:40:02.480Z,2.00
2022-09-14T08:42:34.819Z,2.30
2022-09-14T08:45:09.796Z,3.60
2022-09-14T08:47:42.079Z,2.30
2022-09-14T08:50:18.415Z,2.50
2022-09-14T08:52:53.353Z,2.10
2022-09-14T08:55:43.327Z,2.40
2022-09-14T08:58:30.321Z,2.30
2022-09-14T09:01:10.161Z,2.40
2022-09-14T09:04:03.935Z,2.20
2022-09-14T09:06:45.752Z,3.20
2022-09-14T09:09:25.076Z,2.30
2022-09-14T09:11:58.933Z,2.50
2022-09-14T09:14:35.332Z,2.00
2022-09-14T09:17:15.781Z,2.40
2022-09-14T09:19:59.532Z,2.10
2022-09-14T09:22:37.137Z,1.80
2022-09-14T09:25:17.097Z,3.00
2022-09-14T09:27:48.869Z,2.30
2022-09-14T09:30:20.653Z,3.20
2022-09-14T09:32:53.477Z,1.80
2022-09-14T09:35:36.054Z,2.00
2022-09-14T09:38:26.882Z,2.20
2022-09-14T09:41:02.920Z,2.30
2022-09-14T09:43:48.893Z,2.50
2022-09-14T09:46:21.353Z,2.00
2022-09-14T09:48:53.562Z,2.20
2022-09-14T09:51:31.869Z,1.70
2022-09-14T09:54:09.628Z,2.50
2022-09-14T09:56:52.049Z,2.70
2022-09-14T10:05:19.342Z,1.70
2022-09-14T10:07:57.424Z,2.60
2022-09-14T10:10:44.632Z,2.00
2022-09-14T10:13:26.993Z,2.80
2022-09-14T10:16:08.903Z,1.90
2022-09-14T10:18:49.001Z,2.00
2022-09-14T10:21:22.779Z,1.50
2022-09-14T10:24:08.253Z,2.00
2022-09-14T10:26:40.376Z,2.60
2022-09-14T10:29:36.290Z,2.10
2022-09-14T10:32:18.981Z,2.00
2022-09-14T10:34:52.094Z,2.00
2022-09-14T10:37:44.680Z,3.70
2022-09-14T10:40:20.798Z,2.80
2022-09-14T10:43:04.416Z,4.80
2022-09-14T10:45:40.679Z,2.00
2022-09-14T10:48:30.262Z,2.10
2022-09-14T10:51:14.010Z,2.20
2022-09-14T10:53:55.856Z,2.90
2022-09-14T10:56:34.967Z,2.30
2022-09-14T10:59:21.036Z,2.30
2022-09-14T11:02:10.649Z,2.80
2022-09-14T11:05:05.770Z,3.10
2022-09-14T11:07:45.344Z,2.20
2022-09-14T11:10:24.910Z,2.30
2022-09-14T11:13:14.761Z,2.00
2022-09-14T11:15:55.330Z,2.00
2022-09-14T11:18:36.688Z,2.40
2022-09-14T11:21:19.082Z,1.80
2022-09-14T11:23:54.334Z,2.70
2022-09-14T11:26:31.693Z,2.10
2022-09-14T11:29:11.673Z,2.00
2022-09-14T11:32:10.078Z,2.20
2022-09-14T11:34:48.533Z,2.20
2022-09-14T11:37:25.128Z,2.00
2022-09-14T11:40:05.098Z,3.00
2022-09-14T11:42:45.012Z,2.10
2022-09-14T11:45:24.099Z,2.30
2022-09-14T11:48:03.398Z,2.30
2022-09-14T11:50:36.988Z,2.30
2022-09-14T11:53:13.705Z,2.40
2022-09-14T11:55:48.985Z,2.90
2022-09-14T11:58:24.890Z,2.00
2022-09-14T12:01:06.562Z,2.50
2022-09-14T12:04:08.141Z,1.90
2022-09-14T12:06:57.305Z,2.60
2022-09-14T12:09:50.237Z,2.40
2022-09-14T12:12:38.753Z,2.50
2022-09-14T12:15:33.582Z,2.00
2022-09-14T12:18:25.675Z,2.20
2022-09-14T12:21:07.488Z,2.80
2022-09-14T12:23:48.173Z,2.40
2022-09-14T12:26:40.078Z,2.40
2022-09-14T12:29:32.355Z,1.90
2022-09-14T12:32:25.245Z,3.00
2022-09-14T12:35:33.859Z,3.30
2022-09-14T12:38:42.701Z,2.90
2022-09-14T12:41:48.670Z,2.40
2022-09-14T12:44:41.488Z,2.50
2022-09-14T12:50:11.017Z,2.20
2022-09-14T12:52:57.082Z,3.00
2022-09-14T12:55:45.043Z,2.60
2022-09-14T12:58:31.851Z,2.50
2022-09-14T13:01:18.924Z,2.30
2022-09-14T13:03:54.706Z,2.80
2022-09-14T13:06:31.669Z,2.00
2022-09-14T13:09:09.471Z,1.90
2022-09-14T13:11:43.056Z,2.40
2022-09-14T13:14:19.809Z,2.50
2022-09-14T13:16:52.995Z,2.50
2022-09-14T13:19:27.847Z,2.20
2022-09-14T13:22:02.455Z,2.10
2022-09-14T13:24:43.947Z,1.90
2022-09-14T13:27:25.658Z,2.20
2022-09-14T13:30:04.261Z,2.80
2022-09-14T13:32:42.262Z,2.50
2022-09-14T13:35:21.157Z,2.50
2022-09-14T13:37:53.528Z,2.40
2022-09-14T13:40:29.063Z,2.40
2022-09-14T13:43:01.487Z,2.10
2022-09-14T13:45:34.028Z,2.40
2022-09-14T13:50:37.187Z,2.70
2022-09-14T13:53:48.958Z,2.00
2022-09-14T13:56:36.268Z,2.40
2022-09-14T13:59:21.444Z,2.70
2022-09-14T14:01:59.726Z,2.40
2022-09-14T14:04:35.763Z,1.90
2022-09-14T14:07:17.464Z,1.90
2022-09-14T14:09:51.682Z,3.00
2022-09-14T14:12:29.989Z,2.40
2022-09-14T14:15:03.414Z,1.80
2022-09-14T14:17:38.300Z,2.20
2022-09-14T14:20:36.717Z,2.20
2022-09-14T14:23:23.231Z,2.20
2022-09-14T14:26:06.963Z,2.10
2022-09-14T14:28:38.749Z,2.10
2022-09-14T14:31:17.077Z,1.80
2022-09-14T14:33:51.449Z,2.30
2022-09-14T14:36:23.391Z,2.20
2022-09-14T14:38:56.401Z,2.20
2022-09-14T14:41:28.102Z,2.70
2022-09-14T14:44:00.049Z,1.80
2022-09-14T14:46:32.313Z,2.50
2022-09-14T14:49:04.186Z,2.90
2022-09-14T14:51:35.961Z,2.40
2022-09-14T14:54:07.975Z,1.90
2022-09-14T14:56:39.854Z,2.30
2022-09-14T14:59:26.715Z,2.00
2022-09-14T15:01:59.438Z,3.40
2022-09-14T15:07:01.815Z,2.00
2022-09-14T15:09:33.576Z,2.50
2022-09-14T15:12:05.447Z,3.30
2022-09-14T15:14:37.289Z,2.20
2022-09-14T15:17:08.946Z,2.30
2022-09-14T15:19:40.641Z,2.30
2022-09-14T15:22:14.303Z,2.80
2022-09-14T15:24:46.077Z,2.30
2022-09-14T15:27:17.738Z,2.00
2022-09-14T15:29:49.456Z,2.10
2022-09-14T15:32:21.064Z,2.20
2022-09-14T15:34:53.586Z,2.90
2022-09-14T15:37:25.405Z,3.50
2022-09-14T15:39:57.142Z,2.40
2022-09-14T15:42:29.088Z,2.40
2022-09-14T15:45:00.785Z,2.10
2022-09-14T15:47:36.195Z,2.30
2022-09-14T15:50:09.692Z,2.10
2022-09-14T15:52:41.620Z,2.40
2022-09-14T15:55:14.357Z,2.10
2022-09-14T15:57:46.009Z,3.20
2022-09-14T16:00:19.582Z,2.30
2022-09-14T16:02:53.228Z,2.10
2022-09-14T16:05:25.443Z,2.50
2022-09-14T16:07:58.140Z,3.30
2022-09-14T16:13:00.404Z,2.60
2022-09-14T16:15:32.244Z,3.40
2022-09-14T16:18:03.863Z,6.30
2022-09-14T16:20:37.687Z,3.20
2022-09-14T16:23:09.337Z,3.10
2022-09-14T16:25:41.667Z,2.60
2022-09-14T16:28:13.255Z,3.10
2022-09-14T16:30:45.598Z,3.30
2022-09-14T16:33:17.970Z,2.70
2022-09-14T16:35:49.812Z,3.70
2022-09-14T16:38:24.314Z,2.60
2022-09-14T16:41:01.206Z,2.80
2022-09-14T16:43:34.111Z,3.40
2022-09-14T16:46:09.838Z,2.90
2022-09-14T16:48:45.234Z,3.00
2022-09-14T16:51:19.037Z,3.80
2022-09-14T16:53:51.714Z,3.20
2022-09-14T16:56:25.703Z,3.20
2022-09-14T16:59:01.266Z,3.20
2022-09-14T17:01:35.045Z,3.70
2022-09-14T17:04:09.677Z,2.60
2022-09-14T17:06:43.096Z,3.10
2022-09-14T17:09:17.637Z,4.50
2022-09-14T17:11:50.244Z,3.00
2022-09-14T17:14:24.579Z,3.30
2022-09-14T17:16:56.704Z,3.70
2022-09-14T17:19:28.857Z,3.20
2022-09-14T17:22:03.920Z,3.40
2022-09-14T17:24:35.734Z,3.60
2022-09-14T17:27:07.665Z,3.50
2022-09-14T17:29:40.750Z,3.80
2022-09-14T17:32:14.894Z,3.70
2022-09-14T17:34:47.155Z,3.60
2022-09-14T17:37:19.069Z,4.40
2022-09-14T17:39:51.162Z,4.80
2022-09-14T17:42:22.962Z,6.10
2022-09-14T17:44:54.466Z,3.80
2022-09-14T17:47:26.601Z,3.20
2022-09-14T17:49:58.295Z,5.50
2022-09-14T17:52:30.026Z,5.10
2022-09-14T17:55:01.858Z,5.00
2022-09-14T17:57:33.500Z,4.50
2022-09-14T18:00:07.453Z,4.30
2022-09-14T18:02:39.879Z,3.50
2022-09-14T18:05:12.305Z,4.10
2022-09-14T18:07:44.458Z,3.80
2022-09-14T18:10:17.754Z,6.70
2022-09-14T18:12:49.486Z,5.30
2022-09-14T18:15:22.373Z,6.20
2022-09-14T18:17:54.262Z,5.50
2022-09-14T18:20:26.791Z,5.10
2022-09-14T18:22:58.542Z,4.50
2022-09-14T18:25:30.224Z,3.40
2022-09-14T18:28:01.976Z,3.70
2022-09-14T18:30:34.463Z,4.80
2022-09-14T18:33:06.320Z,4.50
2022-09-14T18:35:40.399Z,4.60
2022-09-14T18:38:14.311Z,7.40
2022-09-14T18:40:46.657Z,7.80
2022-09-14T18:43:22.782Z,6.50
2022-09-14T18:45:55.014Z,5.20
2022-09-14T18:48:27.212Z,6.20
2022-09-14T18:51:02.615Z,5.80
2022-09-14T18:53:34.865Z,5.10
2022-09-14T18:56:09.204Z,5.20
2022-09-14T18:58:42.760Z,6.50
2022-09-14T19:01:16.050Z,5.20
2022-09-14T19:03:48.779Z,5.10
2022-09-14T19:06:21.469Z,5.00
2022-09-14T19:08:53.759Z,5.50
2022-09-14T19:11:28.647Z,5.50
2022-09-14T19:14:02.545Z,7.80
2022-09-14T19:16:34.760Z,6.50
2022-09-14T19:19:07.680Z,7.00
2022-09-14T19:24:12.148Z,10.30
2022-09-14T19:26:46.111Z,10.10
2022-09-14T19:29:20.078Z,10.70
2022-09-14T19:31:52.722Z,10.60
2022-09-14T19:34:26.991Z,9.00
2022-09-14T19:36:58.633Z,8.40
2022-09-14T19:39:30.364Z,8.90
2022-09-14T19:42:02.217Z,8.60
2022-09-14T19:44:34.067Z,8.10
2022-09-14T19:47:06.539Z,8.80
2022-09-14T19:49:38.416Z,8.50
2022-09-14T19:52:10.581Z,8.20
2022-09-14T19:54:42.266Z,7.60
2022-09-14T19:57:14.425Z,7.60
2022-09-14T19:59:46.150Z,8.10
2022-09-14T20:02:18.131Z,8.20
2022-09-14T20:04:50.251Z,7.30
2022-09-14T20:07:22.173Z,9.90
2022-09-14T20:09:54.108Z,8.10
2022-09-14T20:12:26.064Z,8.60
2022-09-14T20:14:58.041Z,8.30
2022-09-14T20:17:30.020Z,8.50
2022-09-14T20:20:01.858Z,8.60
2022-09-14T20:22:33.442Z,8.80
2022-09-14T20:25:06.276Z,9.20
2022-09-14T20:27:37.953Z,9.00
2022-09-14T20:30:11.785Z,9.70
2022-09-14T20:32:43.469Z,8.90
2022-09-14T20:35:15.337Z,9.80
2022-09-14T20:37:47.067Z,9.90
2022-09-14T20:40:18.917Z,9.90
2022-09-14T20:42:50.788Z,10.90
2022-09-14T20:45:23.186Z,9.20
2022-09-14T20:47:54.826Z,9.80
2022-09-14T20:50:26.466Z,10.00
2022-09-14T20:52:58.410Z,8.80
2022-09-14T20:55:32.556Z,8.00
2022-09-14T20:58:04.179Z,9.00
2022-09-14T21:00:35.993Z,8.90
2022-09-14T21:03:07.740Z,9.00
2022-09-14T21:05:39.821Z,10.20
2022-09-14T21:08:11.441Z,11.70
2022-09-14T21:10:43.096Z,11.10
2022-09-14T21:13:15.544Z,7.50
2022-09-14T21:15:47.463Z,7.30
2022-09-14T21:18:20.804Z,7.90
2022-09-14T21:20:52.554Z,7.30
2022-09-14T21:23:24.920Z,7.70
2022-09-14T21:25:58.386Z,8.00
2022-09-14T21:28:31.079Z,7.90
2022-09-14T21:31:11.786Z,8.10
2022-09-14T21:33:45.325Z,8.30
2022-09-14T21:36:18.877Z,8.20
2022-09-14T21:38:53.469Z,11.00
2022-09-14T21:41:27.364Z,14.60
2022-09-14T21:43:59.570Z,9.90
2022-09-14T21:46:31.558Z,8.20
2022-09-14T21:49:03.378Z,7.80
2022-09-14T21:51:36.769Z,7.40
2022-09-14T21:54:11.936Z,7.40
2022-09-14T21:56:46.746Z,8.10
2022-09-14T21:59:21.113Z,8.00
2022-09-14T22:01:52.875Z,7.30
2022-09-14T22:04:26.211Z,6.40
2022-09-14T22:06:59.288Z,7.70
2022-09-14T22:09:31.464Z,6.20
2022-09-14T22:12:03.236Z,7.30
2022-09-14T22:14:34.916Z,6.60
2022-09-14T22:17:06.513Z,7.40
2022-09-14T22:19:38.356Z,7.00
2022-09-14T22:22:09.987Z,6.00
2022-09-14T22:24:42.592Z,5.70
2022-09-14T22:27:14.316Z,5.70
2022-09-14T22:29:46.215Z,6.30
2022-09-14T22:32:21.668Z,6.00
2022-09-14T22:34:53.292Z,5.80
2022-09-14T22:37:24.935Z,5.90
2022-09-14T22:39:56.664Z,5.60
2022-09-14T22:42:31.011Z,5.50
2022-09-14T22:45:02.605Z,6.40
2022-09-14T22:47:34.256Z,5.50
2022-09-14T22:50:06.478Z,5.50
2022-09-14T22:52:38.172Z,8.00
2022-09-14T22:55:11.025Z,5.90
2022-09-14T22:57:42.667Z,6.20
2022-09-14T23:00:16.414Z,6.70
2022-09-14T23:02:48.108Z,6.50
2022-09-14T23:05:19.818Z,5.70
2022-09-14T23:07:51.410Z,7.20
2022-09-14T23:10:23.039Z,7.20
2022-09-14T23:12:54.736Z,6.10
2022-09-14T23:15:26.332Z,6.40
2022-09-14T23:17:58.017Z,6.00
2022-09-14T23:20:29.672Z,6.30
2022-09-14T23:23:01.365Z,6.10
2022-09-14T23:25:34.368Z,6.40
2022-09-14T23:28:07.316Z,6.90
2022-09-14T23:30:39.617Z,7.10
2022-09-14T23:33:11.526Z,7.10
2022-09-14T23:35:47.557Z,8.30
2022-09-14T23:38:19.381Z,7.00
2022-09-14T23:40:51.388Z,8.40
2022-09-14T23:43:23.341Z,7.10
2022-09-14T23:45:54.995Z,7.90
2022-09-14T23:48:26.874Z,8.10
2022-09-14T23:51:03.050Z,7.10
2022-09-14T23:53:35.624Z,7.60
2022-09-14T23:56:08.603Z,7.40
2022-09-14T23:58:41.868Z,7.20
